Time;durP1;ratioP1;P1;durP2;ratioP2;P2;SDS_P1;SDS_P2;PMS_P1;PMS_P2;Temp;Humidity;BMP_temperature;BMP_pressure;BME280_temperature;BME280_humidity;BME280_pressure;Samples;Min_cycle;Max_cycle;Signal;HPM_P1;HPM_P2
2023/12/16 00:02:03;;;;;;;23.30;7.40;;;;;;;;;;5013494;28;20026;-80
2023/12/16 00:04:29;;;;;;;24.87;7.13;;;;;;;;;;4985894;28;20110;-80
2023/12/16 00:06:55;;;;;;;24.47;6.80;;;;;;;;;;5003798;28;20046;-80
2023/12/16 00:09:21;;;;;;;17.90;5.80;;;;;;;;;;4999151;28;20118;-80
2023/12/16 00:11:47;;;;;;;24.67;6.23;;;;;;;;;;4990219;28;20031;-79
2023/12/16 00:14:13;;;;;;;17.23;6.00;;;;;;;;;;4995691;28;20031;-79
2023/12/16 00:16:48;;;;;;;20.20;6.37;;;;;;;;;;4984574;28;20027;-80
2023/12/16 00:19:14;;;;;;;19.33;5.70;;;;;;;;;;4989977;28;20030;-79
2023/12/16 00:21:40;;;;;;;16.00;6.20;;;;;;;;;;5000319;28;20443;-79
2023/12/16 00:24:06;;;;;;;19.83;5.30;;;;;;;;;;4994575;28;20026;-79
2023/12/16 00:26:33;;;;;;;14.33;5.77;;;;;;;;;;4984848;28;20034;-79
2023/12/16 00:28:59;;;;;;;20.40;5.53;;;;;;;;;;5016988;28;20037;-80
2023/12/16 00:31:25;;;;;;;19.83;5.67;;;;;;;;;;5000094;28;20038;-79
2023/12/16 00:33:51;;;;;;;24.17;5.60;;;;;;;;;;4994963;28;20378;-79
2023/12/16 00:36:17;;;;;;;16.97;6.03;;;;;;;;;;4999470;28;20026;-80
2023/12/16 00:38:43;;;;;;;18.50;6.10;;;;;;;;;;4999384;28;20167;-79
2023/12/16 00:41:09;;;;;;;21.00;5.53;;;;;;;;;;4997946;28;20033;-79
2023/12/16 00:43:38;;;;;;;18.33;5.57;;;;;;;;;;4994143;28;20034;-79
2023/12/16 00:46:04;;;;;;;18.57;5.80;;;;;;;;;;4987331;28;20022;-80
2023/12/16 00:48:30;;;;;;;11.90;4.90;;;;;;;;;;4990941;28;20113;-79
2023/12/16 00:50:56;;;;;;;13.43;5.60;;;;;;;;;;4993916;28;20030;-79
2023/12/16 00:53:22;;;;;;;16.50;5.63;;;;;;;;;;4978741;28;20026;-80
2023/12/16 00:55:48;;;;;;;14.90;4.70;;;;;;;;;;5000539;28;20034;-79
2023/12/16 00:58:14;;;;;;;15.93;6.00;;;;;;;;;;5000612;28;20030;-80
2023/12/16 01:00:42;;;;;;;19.23;5.40;;;;;;;;;;4998445;28;20041;-79
2023/12/16 01:03:08;;;;;;;19.27;6.00;;;;;;;;;;5013684;28;20034;-80
2023/12/16 01:05:37;;;;;;;15.70;5.47;;;;;;;;;;5017449;28;20109;-79
2023/12/16 01:08:04;;;;;;;21.67;5.70;;;;;;;;;;5002222;28;20053;-80
2023/12/16 01:10:30;;;;;;;13.40;5.90;;;;;;;;;;5001563;28;20061;-79
2023/12/16 01:12:56;;;;;;;17.80;5.60;;;;;;;;;;5016569;28;20035;-79
2023/12/16 01:15:22;;;;;;;17.37;5.93;;;;;;;;;;5016512;28;20058;-79
2023/12/16 01:17:48;;;;;;;21.80;5.60;;;;;;;;;;4998817;28;20035;-80
2023/12/16 01:20:14;;;;;;;15.27;5.13;;;;;;;;;;4980660;28;20030;-79
2023/12/16 01:22:40;;;;;;;24.27;6.50;;;;;;;;;;5017920;28;20034;-80
2023/12/16 01:25:06;;;;;;;22.07;6.57;;;;;;;;;;4984752;28;20641;-81
2023/12/16 01:27:33;;;;;;;13.37;5.90;;;;;;;;;;4981997;28;20034;-80
2023/12/16 01:29:59;;;;;;;19.90;5.70;;;;;;;;;;5014829;28;20026;-80
2023/12/16 01:32:25;;;;;;;25.47;6.03;;;;;;;;;;5014070;28;20034;-79
2023/12/16 01:34:55;;;;;;;23.80;5.77;;;;;;;;;;5015007;28;20405;-80
2023/12/16 01:37:22;;;;;;;16.97;4.83;;;;;;;;;;4988658;28;20116;-79
2023/12/16 01:39:48;;;;;;;15.77;5.90;;;;;;;;;;5018545;28;20109;-79
2023/12/16 01:42:14;;;;;;;17.13;5.63;;;;;;;;;;5018035;28;20037;-81
2023/12/16 01:44:40;;;;;;;14.03;5.27;;;;;;;;;;5014275;28;20031;-79
2023/12/16 01:47:06;;;;;;;20.50;6.03;;;;;;;;;;4981709;28;20034;-80
2023/12/16 01:49:32;;;;;;;15.27;5.83;;;;;;;;;;4986704;28;20038;-79
2023/12/16 01:51:58;;;;;;;20.93;5.60;;;;;;;;;;4999307;28;20034;-79
2023/12/16 01:54:25;;;;;;;15.07;5.83;;;;;;;;;;5001802;28;20019;-79
2023/12/16 01:56:56;;;;;;;21.73;6.83;;;;;;;;;;5013075;28;20034;-80
2023/12/16 01:59:23;;;;;;;15.30;5.45;;;;;;;;;;4999864;28;20030;-80
2023/12/16 02:01:49;;;;;;;18.13;6.33;;;;;;;;;;4997490;28;20110;-80
2023/12/16 02:04:15;;;;;;;18.33;5.73;;;;;;;;;;4981214;28;20041;-80
2023/12/16 02:06:42;;;;;;;15.13;5.30;;;;;;;;;;5012855;28;20343;-80
2023/12/16 02:09:08;;;;;;;20.57;5.47;;;;;;;;;;4988629;28;20126;-80
2023/12/16 02:11:34;;;;;;;21.77;6.83;;;;;;;;;;5018459;28;20034;-80
2023/12/16 02:14:00;;;;;;;21.23;5.90;;;;;;;;;;5018085;28;20038;-80
2023/12/16 02:16:26;;;;;;;12.97;5.40;;;;;;;;;;4980196;28;20034;-80
2023/12/16 02:18:52;;;;;;;15.53;5.33;;;;;;;;;;4985642;28;20027;-80
2023/12/16 02:21:19;;;;;;;22.87;5.00;;;;;;;;;;5002036;28;20038;-80
2023/12/16 02:23:45;;;;;;;16.63;5.60;;;;;;;;;;5017535;28;20018;-79
2023/12/16 02:26:11;;;;;;;25.30;6.30;;;;;;;;;;4976648;28;21463;-79
2023/12/16 02:28:37;;;;;;;12.80;5.47;;;;;;;;;;5014448;28;20517;-80
2023/12/16 02:31:03;;;;;;;15.83;5.40;;;;;;;;;;5016881;28;20033;-79
2023/12/16 02:33:29;;;;;;;17.90;5.50;;;;;;;;;;5016571;28;20027;-80
2023/12/16 02:35:55;;;;;;;20.27;5.30;;;;;;;;;;4982780;28;20029;-80
2023/12/16 02:38:21;;;;;;;13.70;5.27;;;;;;;;;;5015507;28;20117;-80
2023/12/16 02:40:48;;;;;;;21.93;6.20;;;;;;;;;;4979741;28;20199;-79
2023/12/16 02:43:14;;;;;;;14.37;5.43;;;;;;;;;;5021216;28;20033;-80
2023/12/16 02:45:41;;;;;;;16.67;5.07;;;;;;;;;;4987859;28;20026;-79
2023/12/16 02:48:07;;;;;;;17.27;4.93;;;;;;;;;;5004607;28;20121;-80
2023/12/16 02:50:33;;;;;;;20.00;5.70;;;;;;;;;;5006342;28;20033;-80
2023/12/16 02:52:59;;;;;;;23.73;5.77;;;;;;;;;;5003269;28;20093;-80
2023/12/16 02:55:25;;;;;;;12.00;5.47;;;;;;;;;;4986289;28;20041;-79
2023/12/16 02:57:52;;;;;;;16.33;4.70;;;;;;;;;;4985090;28;20031;-79
2023/12/16 03:00:18;;;;;;;13.60;5.30;;;;;;;;;;5020386;28;20064;-80
2023/12/16 03:02:44;;;;;;;15.87;4.77;;;;;;;;;;4983676;28;20613;-80
2023/12/16 03:05:10;;;;;;;13.50;4.47;;;;;;;;;;4984513;28;20037;-80
2023/12/16 03:07:38;;;;;;;15.47;5.57;;;;;;;;;;5019309;28;20039;-80
2023/12/16 03:10:04;;;;;;;14.70;4.57;;;;;;;;;;5002580;28;20043;-80
2023/12/16 03:12:30;;;;;;;12.23;4.50;;;;;;;;;;5018762;28;20038;-79
2023/12/16 03:14:56;;;;;;;21.47;5.40;;;;;;;;;;4997686;28;20034;-79
2023/12/16 03:17:23;;;;;;;13.73;4.87;;;;;;;;;;5002667;28;20026;-80
2023/12/16 03:19:51;;;;;;;14.90;5.07;;;;;;;;;;4989906;28;20180;-80
2023/12/16 03:22:17;;;;;;;17.57;4.93;;;;;;;;;;4989420;28;20053;-80
2023/12/16 03:24:43;;;;;;;10.50;4.10;;;;;;;;;;5003099;28;20053;-80
2023/12/16 03:27:10;;;;;;;14.23;4.50;;;;;;;;;;4987886;28;21371;-81
2023/12/16 04:26:43;;;;;;;11.43;3.53;;;;;;;;;;5912714;23;20636;-81
2023/12/16 04:29:09;;;;;;;10.97;3.33;;;;;;;;;;5008711;28;20048;-80
2023/12/16 04:31:35;;;;;;;11.07;3.63;;;;;;;;;;5004757;28;20116;-80
2023/12/16 04:34:02;;;;;;;11.83;3.57;;;;;;;;;;5007235;28;20096;-82
2023/12/16 04:36:28;;;;;;;12.43;3.87;;;;;;;;;;5007128;28;20048;-82
2023/12/16 04:38:54;;;;;;;13.50;3.50;;;;;;;;;;5020335;28;20032;-81
2023/12/16 04:41:20;;;;;;;12.83;4.00;;;;;;;;;;5006961;28;20097;-80
2023/12/16 04:43:46;;;;;;;13.33;3.87;;;;;;;;;;5006436;28;20018;-81
2023/12/16 04:46:13;;;;;;;11.53;4.03;;;;;;;;;;5009240;28;20032;-81
2023/12/16 04:48:41;;;;;;;12.50;3.50;;;;;;;;;;5014211;28;20056;-82
2023/12/16 04:51:07;;;;;;;15.93;3.20;;;;;;;;;;5029036;28;20037;-81
2023/12/16 04:53:34;;;;;;;12.13;3.53;;;;;;;;;;5005279;28;20521;-82
2023/12/16 04:56:00;;;;;;;12.77;3.67;;;;;;;;;;5025234;28;20033;-81
2023/12/16 04:58:26;;;;;;;12.77;3.67;;;;;;;;;;5006827;28;20037;-82
2023/12/16 05:00:52;;;;;;;11.20;3.23;;;;;;;;;;5026661;28;20049;-81
2023/12/16 05:03:19;;;;;;;14.47;4.03;;;;;;;;;;4994479;28;20038;-81
2023/12/16 05:05:45;;;;;;;10.17;3.30;;;;;;;;;;5007833;28;20029;-81
2023/12/16 05:08:11;;;;;;;12.23;3.23;;;;;;;;;;5008464;28;20029;-81
2023/12/16 05:10:40;;;;;;;13.97;3.83;;;;;;;;;;5007965;28;20022;-81
2023/12/16 05:13:09;;;;;;;7.77;3.53;;;;;;;;;;4999819;28;20022;-82
2023/12/16 05:15:36;;;;;;;13.23;3.63;;;;;;;;;;5006981;28;20434;-82
2023/12/16 05:18:02;;;;;;;14.47;2.97;;;;;;;;;;5000115;28;20029;-81
2023/12/16 05:20:28;;;;;;;12.87;3.07;;;;;;;;;;5020347;28;20028;-82
2023/12/16 05:22:54;;;;;;;8.87;3.37;;;;;;;;;;5017734;28;20044;-81
2023/12/16 05:25:20;;;;;;;15.10;3.60;;;;;;;;;;5001184;28;20037;-81
2023/12/16 05:27:46;;;;;;;8.40;2.83;;;;;;;;;;5003488;28;20034;-81
2023/12/16 05:30:13;;;;;;;11.03;3.23;;;;;;;;;;5009221;28;20486;-82
2023/12/16 05:32:39;;;;;;;12.23;3.37;;;;;;;;;;5005811;28;20030;-82
2023/12/16 05:35:05;;;;;;;13.47;3.57;;;;;;;;;;5004739;28;20037;-82
2023/12/16 05:37:31;;;;;;;17.87;3.77;;;;;;;;;;5019011;28;20022;-81
2023/12/16 05:39:57;;;;;;;13.33;3.10;;;;;;;;;;5009379;28;20056;-81
2023/12/16 05:42:23;;;;;;;17.40;3.63;;;;;;;;;;5008299;28;20033;-81
2023/12/16 05:44:49;;;;;;;9.57;2.93;;;;;;;;;;5013873;28;20030;-82
2023/12/16 05:47:18;;;;;;;9.17;3.20;;;;;;;;;;5013258;28;20064;-80
2023/12/16 05:49:44;;;;;;;16.13;3.47;;;;;;;;;;5008848;28;20093;-81
2023/12/16 05:52:11;;;;;;;8.73;3.07;;;;;;;;;;5000758;28;20367;-80
2023/12/16 05:54:37;;;;;;;15.20;3.23;;;;;;;;;;5009212;28;20109;-82
2023/12/16 05:57:06;;;;;;;10.10;2.70;;;;;;;;;;5012936;28;20095;-80
2023/12/16 05:59:34;;;;;;;12.27;2.20;;;;;;;;;;5004362;28;20040;-81
2023/12/16 06:02:00;;;;;;;12.63;2.90;;;;;;;;;;4998802;28;20030;-81
2023/12/16 06:04:29;;;;;;;14.00;3.13;;;;;;;;;;5010286;28;20029;-81
2023/12/16 06:06:56;;;;;;;16.23;3.13;;;;;;;;;;5007109;28;20065;-82
2023/12/16 06:09:22;;;;;;;8.90;3.40;;;;;;;;;;5022068;28;20057;-82
2023/12/16 06:11:48;;;;;;;12.23;2.60;;;;;;;;;;5014276;28;20354;-81
2023/12/16 06:14:14;;;;;;;12.43;2.73;;;;;;;;;;5011175;28;20022;-82
2023/12/16 06:16:40;;;;;;;9.93;2.47;;;;;;;;;;5002742;28;20101;-82
2023/12/16 06:19:08;;;;;;;14.70;3.13;;;;;;;;;;5019368;28;20124;-81
2023/12/16 06:21:35;;;;;;;15.67;3.67;;;;;;;;;;5021057;28;20247;-81
2023/12/16 06:24:02;;;;;;;12.27;2.87;;;;;;;;;;5009800;28;20052;-81
2023/12/16 06:26:30;;;;;;;10.73;3.13;;;;;;;;;;5009708;28;20029;-80
2023/12/16 06:28:56;;;;;;;7.87;3.00;;;;;;;;;;5010048;28;20036;-80
2023/12/16 06:31:22;;;;;;;9.17;2.67;;;;;;;;;;5007882;28;20132;-81
2023/12/16 06:33:48;;;;;;;12.93;2.87;;;;;;;;;;5021951;28;20045;-82
2023/12/16 06:36:14;;;;;;;12.50;3.63;;;;;;;;;;5008306;28;20512;-81
2023/12/16 06:38:41;;;;;;;7.13;2.77;;;;;;;;;;5008415;28;20045;-80
2023/12/16 06:41:07;;;;;;;16.20;3.50;;;;;;;;;;5004937;28;20117;-80
2023/12/16 06:43:39;;;;;;;17.57;4.00;;;;;;;;;;5007146;28;20025;-81
2023/12/16 06:46:11;;;;;;;7.10;2.47;;;;;;;;;;5007221;28;20683;-81
2023/12/16 06:48:40;;;;;;;11.02;2.97;;;;;;;;;;5019299;28;20038;-80
2023/12/16 06:51:08;;;;;;;13.00;2.83;;;;;;;;;;5019069;28;20045;-81
2023/12/16 06:53:35;;;;;;;12.30;3.37;;;;;;;;;;5021458;28;20040;-80
2023/12/16 06:56:01;;;;;;;10.23;3.63;;;;;;;;;;5020124;28;20467;-81
2023/12/16 06:58:28;;;;;;;15.00;3.50;;;;;;;;;;5004906;28;20034;-81
2023/12/16 07:00:54;;;;;;;10.90;2.37;;;;;;;;;;5021197;28;20045;-81
2023/12/16 07:03:20;;;;;;;15.73;3.53;;;;;;;;;;5019394;28;20041;-80
2023/12/16 07:05:46;;;;;;;12.40;3.57;;;;;;;;;;5002991;28;20374;-80
2023/12/16 07:08:13;;;;;;;12.27;2.77;;;;;;;;;;5019955;28;20521;-81
2023/12/16 07:10:39;;;;;;;8.83;2.63;;;;;;;;;;5003407;28;20037;-81
2023/12/16 07:13:07;;;;;;;14.07;2.73;;;;;;;;;;5020154;28;20671;-81
2023/12/16 07:15:34;;;;;;;9.90;2.87;;;;;;;;;;5005046;28;20022;-80
2023/12/16 07:18:02;;;;;;;16.77;3.07;;;;;;;;;;5019228;28;20072;-81
2023/12/16 07:20:28;;;;;;;7.00;2.50;;;;;;;;;;5004472;28;20116;-82
2023/12/16 07:22:55;;;;;;;15.03;3.13;;;;;;;;;;5021102;28;20029;-82
2023/12/16 07:25:24;;;;;;;11.17;2.83;;;;;;;;;;5003920;28;20068;-82
2023/12/16 07:27:50;;;;;;;16.07;2.93;;;;;;;;;;5021850;28;20087;-81
2023/12/16 07:30:16;;;;;;;7.93;3.07;;;;;;;;;;5021600;28;20097;-81
2023/12/16 07:32:42;;;;;;;9.77;3.30;;;;;;;;;;5022371;28;20038;-80
2023/12/16 07:35:13;;;;;;;10.57;3.60;;;;;;;;;;5007669;28;20056;-80
2023/12/16 07:37:40;;;;;;;15.80;3.50;;;;;;;;;;5001045;28;20041;-81
2023/12/16 07:40:09;;;;;;;18.13;4.33;;;;;;;;;;5019751;28;20029;-82
2023/12/16 07:42:39;;;;;;;16.83;2.80;;;;;;;;;;5019395;28;20034;-81
2023/12/16 07:45:05;;;;;;;10.77;3.30;;;;;;;;;;5017463;28;20048;-81
2023/12/16 07:47:32;;;;;;;8.40;2.83;;;;;;;;;;5001565;28;20034;-80
2023/12/16 07:49:58;;;;;;;11.83;2.90;;;;;;;;;;4998970;28;20072;-80
2023/12/16 07:52:24;;;;;;;15.17;3.37;;;;;;;;;;5014148;28;20040;-80
2023/12/16 07:54:51;;;;;;;17.60;3.33;;;;;;;;;;5016289;28;20104;-81
2023/12/16 07:57:17;;;;;;;17.30;4.20;;;;;;;;;;5015822;28;20057;-82
2023/12/16 07:59:43;;;;;;;9.43;3.03;;;;;;;;;;5000891;28;20026;-81
2023/12/16 08:02:10;;;;;;;14.53;2.80;;;;;;;;;;5000892;28;20881;-81
2023/12/16 08:04:37;;;;;;;8.57;2.43;;;;;;;;;;5014449;28;20045;-81
2023/12/16 08:07:03;;;;;;;7.57;2.50;;;;;;;;;;5017903;28;20060;-81
2023/12/16 08:09:29;;;;;;;15.30;3.60;;;;;;;;;;4998737;28;20065;-80
2023/12/16 08:11:58;;;;;;;15.40;3.53;;;;;;;;;;4996063;28;20025;-80
2023/12/16 08:14:24;;;;;;;13.87;3.03;;;;;;;;;;4997326;28;20083;-80
2023/12/16 08:16:50;;;;;;;11.30;3.00;;;;;;;;;;4998508;28;20026;-80
2023/12/16 08:19:19;;;;;;;16.67;4.47;;;;;;;;;;4998295;28;20030;-79
2023/12/16 08:21:53;;;;;;;7.50;2.53;;;;;;;;;;5003188;28;20037;-81
2023/12/16 08:24:22;;;;;;;13.70;3.63;;;;;;;;;;5015544;28;20121;-80
2023/12/16 08:26:49;;;;;;;11.63;3.47;;;;;;;;;;5016127;28;20080;-80
2023/12/16 08:29:30;;;;;;;18.73;3.90;;;;;;;;;;5018622;28;20080;-81
2023/12/16 08:31:56;;;;;;;15.57;5.17;;;;;;;;;;5013705;28;20369;-79
2023/12/16 08:34:31;;;;;;;16.27;3.93;;;;;;;;;;5016029;28;20457;-80
2023/12/16 08:37:00;;;;;;;12.50;3.43;;;;;;;;;;4997497;28;20124;-82
2023/12/16 08:39:26;;;;;;;13.13;2.80;;;;;;;;;;5012511;28;20463;-79
2023/12/16 08:41:52;;;;;;;16.23;3.27;;;;;;;;;;5011224;28;20022;-79
2023/12/16 08:44:18;;;;;;;13.57;3.47;;;;;;;;;;5001020;28;20025;-79
2023/12/16 08:46:44;;;;;;;12.20;4.00;;;;;;;;;;5000326;28;20025;-79
2023/12/16 08:49:10;;;;;;;10.23;3.30;;;;;;;;;;5002438;28;20481;-78
2023/12/16 08:51:36;;;;;;;18.07;4.20;;;;;;;;;;5001608;28;20043;-78
2023/12/16 08:54:02;;;;;;;21.00;4.73;;;;;;;;;;5009281;28;20436;-79
2023/12/16 08:56:28;;;;;;;13.57;3.40;;;;;;;;;;5008314;28;20055;-79
2023/12/16 08:58:54;;;;;;;13.17;3.63;;;;;;;;;;5008357;28;20936;-79
2023/12/16 09:01:20;;;;;;;14.83;3.60;;;;;;;;;;5008637;28;20025;-79
2023/12/16 09:03:47;;;;;;;12.73;3.17;;;;;;;;;;5006195;28;20067;-78
2023/12/16 09:06:13;;;;;;;10.63;3.10;;;;;;;;;;5006368;28;20035;-78
2023/12/16 09:08:39;;;;;;;10.33;3.07;;;;;;;;;;5007999;28;20036;-79
2023/12/16 09:11:06;;;;;;;16.97;4.23;;;;;;;;;;5020309;28;20022;-79
2023/12/16 09:13:35;;;;;;;15.43;3.60;;;;;;;;;;5003881;28;20044;-79
2023/12/16 09:16:04;;;;;;;12.10;3.50;;;;;;;;;;5006474;28;20450;-78
2023/12/16 09:18:30;;;;;;;15.10;4.20;;;;;;;;;;5015278;28;20037;-79
2023/12/16 09:20:56;;;;;;;13.73;3.50;;;;;;;;;;5010925;28;20091;-79
2023/12/16 09:23:22;;;;;;;13.20;4.17;;;;;;;;;;5021433;28;20045;-79
2023/12/16 09:25:52;;;;;;;13.73;3.30;;;;;;;;;;5005293;28;20022;-79
2023/12/16 09:28:18;;;;;;;11.33;3.00;;;;;;;;;;5004948;28;20041;-79
2023/12/16 09:30:47;;;;;;;16.43;3.67;;;;;;;;;;5004542;28;20485;-79
2023/12/16 09:33:13;;;;;;;12.27;4.13;;;;;;;;;;5006089;28;20042;-79
2023/12/16 09:35:39;;;;;;;14.40;2.47;;;;;;;;;;5008011;28;20018;-79
2023/12/16 09:38:05;;;;;;;11.70;3.33;;;;;;;;;;5006362;28;20042;-82
2023/12/16 09:40:31;;;;;;;12.20;3.23;;;;;;;;;;5012522;28;20072;-81
2023/12/16 09:43:10;;;;;;;11.67;3.13;;;;;;;;;;5030678;28;20025;-82
2023/12/16 09:45:36;;;;;;;14.87;3.60;;;;;;;;;;5011697;28;20034;-81
2023/12/16 09:48:03;;;;;;;12.53;2.97;;;;;;;;;;5011603;28;20057;-82
2023/12/16 09:50:33;;;;;;;14.83;3.33;;;;;;;;;;5022176;28;20056;-81
2023/12/16 09:52:59;;;;;;;11.50;3.13;;;;;;;;;;5017457;28;20030;-78
2023/12/16 09:55:25;;;;;;;13.80;3.03;;;;;;;;;;5003972;28;20497;-78
2023/12/16 09:57:52;;;;;;;11.90;3.90;;;;;;;;;;5020925;28;20030;-82
2023/12/16 10:00:18;;;;;;;16.57;3.87;;;;;;;;;;5016892;28;20053;-80
2023/12/16 10:02:47;;;;;;;17.27;3.17;;;;;;;;;;5014979;28;21785;-79
2023/12/16 10:05:14;;;;;;;13.70;3.50;;;;;;;;;;5005212;28;20030;-79
2023/12/16 10:07:40;;;;;;;18.20;3.00;;;;;;;;;;5000769;28;20033;-79
2023/12/16 10:10:06;;;;;;;20.87;3.40;;;;;;;;;;5006224;28;21985;-77
2023/12/16 10:12:35;;;;;;;8.67;3.00;;;;;;;;;;5003039;28;20462;-79
2023/12/16 10:15:01;;;;;;;9.20;2.37;;;;;;;;;;5006300;28;20460;-80
2023/12/16 10:17:28;;;;;;;16.80;4.43;;;;;;;;;;5002461;28;20029;-79
2023/12/16 10:19:54;;;;;;;12.67;2.97;;;;;;;;;;5007341;28;20032;-79
2023/12/16 10:22:20;;;;;;;15.73;3.90;;;;;;;;;;5003443;28;20073;-79
2023/12/16 10:24:47;;;;;;;14.17;3.70;;;;;;;;;;5005960;28;20453;-78
2023/12/16 10:27:13;;;;;;;9.13;3.43;;;;;;;;;;5002323;28;20049;-79
2023/12/16 10:29:41;;;;;;;14.57;3.30;;;;;;;;;;5003219;28;20446;-80
2023/12/16 10:32:10;;;;;;;9.00;2.90;;;;;;;;;;5019162;28;20041;-79
2023/12/16 10:34:35;;;;;;;12.83;3.23;;;;;;;;;;5013365;28;20029;-79
2023/12/16 10:37:08;;;;;;;12.70;3.00;;;;;;;;;;5001117;28;20036;-79
2023/12/16 10:39:34;;;;;;;;;;;;;;;;;;5002393;28;20033;-79
2023/12/16 10:42:00;;;;;;;7.00;2.70;;;;;;;;;;5025561;28;20356;-80
2023/12/16 10:44:26;;;;;;;11.33;3.07;;;;;;;;;;4988142;28;20451;-79
2023/12/16 10:46:54;;;;;;;10.10;2.23;;;;;;;;;;5016339;28;20418;-79
2023/12/16 10:49:26;;;;;;;13.10;2.43;;;;;;;;;;5001882;28;20033;-80
2023/12/16 10:51:52;;;;;;;;;;;;;;;;;;5001707;28;20177;-80
2023/12/16 10:54:39;;;;;;;23.10;3.67;;;;;;;;;;5005786;28;19972;-85
2023/12/16 10:57:12;;;;;;;13.70;2.97;;;;;;;;;;5022138;28;20049;-82
2023/12/16 10:59:40;;;;;;;9.30;2.05;;;;;;;;;;5006686;28;20026;-80
2023/12/16 11:02:14;;;;;;;9.13;2.47;;;;;;;;;;5001659;28;20108;-79
2023/12/16 11:04:42;;;;;;;11.30;2.60;;;;;;;;;;4992160;28;20068;-78
2023/12/16 11:07:10;;;;;;;10.57;3.40;;;;;;;;;;4996675;28;20112;-80
2023/12/16 11:09:37;;;;;;;12.13;2.53;;;;;;;;;;5004563;28;20053;-80
2023/12/16 11:12:03;;;;;;;12.10;2.97;;;;;;;;;;5002633;28;20022;-83
2023/12/16 11:14:33;;;;;;;10.13;2.23;;;;;;;;;;5014239;28;20025;-79
2023/12/16 11:16:59;;;;;;;21.23;3.23;;;;;;;;;;5000460;28;20026;-79
2023/12/16 11:19:29;;;;;;;13.23;2.67;;;;;;;;;;5007306;28;20652;-78
2023/12/16 11:21:55;;;;;;;14.37;2.50;;;;;;;;;;4998652;28;20041;-78
2023/12/16 11:24:23;;;;;;;10.23;2.67;;;;;;;;;;5003874;28;20018;-79
2023/12/16 11:26:51;;;;;;;20.00;3.00;;;;;;;;;;5003853;28;20109;-78
2023/12/16 11:29:20;;;;;;;15.77;2.23;;;;;;;;;;4996314;28;20038;-78
2023/12/16 11:31:51;;;;;;;14.63;3.73;;;;;;;;;;5001067;28;20030;-78
2023/12/16 11:34:36;;;;;;;12.27;2.23;;;;;;;;;;4997955;28;20034;-79
2023/12/16 11:37:02;;;;;;;12.97;2.43;;;;;;;;;;4999600;28;20116;-78
2023/12/16 11:39:44;;;;;;;14.70;2.43;;;;;;;;;;5000410;28;20034;-79
2023/12/16 11:42:11;;;;;;;11.32;1.92;;;;;;;;;;4997485;28;20099;-78
2023/12/16 11:44:53;;;;;;;11.53;2.90;;;;;;;;;;4997588;28;20052;-79
2023/12/16 11:47:23;;;;;;;19.95;3.72;;;;;;;;;;5004792;28;20021;-79
2023/12/16 11:49:50;;;;;;;11.37;2.33;;;;;;;;;;5000113;28;20450;-79
2023/12/16 11:52:22;;;;;;;10.83;2.57;;;;;;;;;;5000835;28;20022;-79
2023/12/16 11:54:48;;;;;;;;;;;;;;;;;;4992418;28;20026;-78
2023/12/16 11:57:18;;;;;;;12.97;2.80;;;;;;;;;;5005271;28;19920;-78
2023/12/16 11:59:44;;;;;;;18.27;2.30;;;;;;;;;;5022510;28;20023;-78
2023/12/16 12:02:10;;;;;;;18.17;3.00;;;;;;;;;;4989787;28;20446;-78
2023/12/16 12:04:37;;;;;;;15.60;2.73;;;;;;;;;;5000238;28;20028;-78
2023/12/16 12:07:03;;;;;;;12.93;2.20;;;;;;;;;;5013426;28;20026;-78
2023/12/16 12:09:30;;;;;;;13.63;2.43;;;;;;;;;;4998767;28;20037;-78
2023/12/16 12:11:57;;;;;;;17.70;3.47;;;;;;;;;;5002134;28;20030;-78
2023/12/16 12:14:24;;;;;;;16.47;2.70;;;;;;;;;;4998939;28;20080;-78
2023/12/16 12:16:50;;;;;;;16.57;2.90;;;;;;;;;;5001293;28;20030;-78
2023/12/16 12:19:16;;;;;;;22.13;3.07;;;;;;;;;;4999481;28;20040;-77
2023/12/16 12:21:45;;;;;;;24.57;3.60;;;;;;;;;;4999630;28;20037;-78
2023/12/16 12:24:11;;;;;;;12.93;2.67;;;;;;;;;;5014982;28;20084;-77
2023/12/16 12:26:37;;;;;;;13.33;2.93;;;;;;;;;;5015526;28;20534;-78
2023/12/16 12:29:03;;;;;;;10.03;2.40;;;;;;;;;;5012464;28;20025;-78
2023/12/16 12:31:29;;;;;;;18.40;3.80;;;;;;;;;;5001603;28;20029;-78
2023/12/16 12:33:55;;;;;;;21.03;3.70;;;;;;;;;;5011231;28;20030;-78
2023/12/16 12:36:21;;;;;;;28.80;3.97;;;;;;;;;;4998292;28;20021;-78
2023/12/16 12:38:54;;;;;;;13.43;2.97;;;;;;;;;;5014221;28;20022;-79
2023/12/16 12:41:20;;;;;;;16.70;3.00;;;;;;;;;;5014159;28;20040;-78
2023/12/16 12:43:46;;;;;;;9.23;2.27;;;;;;;;;;4996285;28;20018;-78
2023/12/16 12:46:16;;;;;;;22.20;3.53;;;;;;;;;;5002983;28;20042;-78
2023/12/16 12:48:52;;;;;;;11.47;3.33;;;;;;;;;;4994672;28;20034;-78
2023/12/16 12:51:18;;;;;;;15.73;3.07;;;;;;;;;;4996081;28;20034;-77
2023/12/16 12:53:55;;;;;;;17.03;2.93;;;;;;;;;;5010858;28;20058;-79
2023/12/16 12:56:23;;;;;;;15.77;2.70;;;;;;;;;;4993856;28;20033;-78
2023/12/16 12:58:49;;;;;;;12.57;2.90;;;;;;;;;;5011786;28;20040;-78
2023/12/16 13:01:15;;;;;;;14.57;2.47;;;;;;;;;;4992868;28;20053;-77
2023/12/16 13:03:45;;;;;;;13.37;3.17;;;;;;;;;;5011392;28;20049;-78
2023/12/16 13:06:11;;;;;;;13.13;2.90;;;;;;;;;;5010044;28;20037;-78
2023/12/16 13:08:40;;;;;;;14.07;2.67;;;;;;;;;;5010358;28;20041;-78
2023/12/16 13:11:06;;;;;;;11.50;2.77;;;;;;;;;;5010287;28;20061;-78
2023/12/16 13:13:35;;;;;;;11.20;2.10;;;;;;;;;;5010670;28;20443;-77
2023/12/16 13:16:01;;;;;;;19.73;3.03;;;;;;;;;;4993050;28;20120;-77
2023/12/16 13:18:28;;;;;;;9.90;2.90;;;;;;;;;;5011088;28;20117;-78
2023/12/16 13:20:54;;;;;;;16.57;2.93;;;;;;;;;;4993927;28;20029;-78
2023/12/16 13:23:22;;;;;;;15.33;3.53;;;;;;;;;;4993277;28;20359;-77
2023/12/16 13:25:49;;;;;;;19.63;2.80;;;;;;;;;;4994060;28;20042;-77
2023/12/16 13:28:17;;;;;;;13.23;3.40;;;;;;;;;;5009615;28;20038;-78
2023/12/16 13:30:45;;;;;;;16.60;3.00;;;;;;;;;;5010221;28;20033;-78
2023/12/16 13:33:14;;;;;;;16.23;2.80;;;;;;;;;;5010391;28;20038;-78
2023/12/16 13:35:40;;;;;;;18.07;3.00;;;;;;;;;;5009797;28;20018;-78
2023/12/16 13:38:06;;;;;;;15.77;2.70;;;;;;;;;;5012634;28;20100;-77
2023/12/16 13:40:32;;;;;;;10.77;2.70;;;;;;;;;;4996437;28;20121;-78
2023/12/16 13:42:57;;;;;;;11.10;3.07;;;;;;;;;;4996072;28;20362;-78
2023/12/16 13:45:23;;;;;;;17.63;3.17;;;;;;;;;;4997783;28;20045;-78
2023/12/16 13:47:49;;;;;;;19.43;3.07;;;;;;;;;;4998046;28;20133;-78
2023/12/16 13:50:16;;;;;;;13.40;2.17;;;;;;;;;;4997661;28;20030;-77
2023/12/16 13:52:42;;;;;;;20.87;2.57;;;;;;;;;;4997615;28;20121;-76
2023/12/16 13:55:08;;;;;;;16.00;2.40;;;;;;;;;;5016018;28;20089;-78
2023/12/16 13:57:34;;;;;;;19.97;3.70;;;;;;;;;;5013971;28;20366;-78
2023/12/16 14:00:03;;;;;;;15.43;2.07;;;;;;;;;;4996346;28;20022;-78
2023/12/16 14:02:29;;;;;;;13.83;2.53;;;;;;;;;;4999322;28;20048;-78
2023/12/16 14:04:55;;;;;;;13.30;2.80;;;;;;;;;;5016016;28;20121;-77
2023/12/16 14:07:21;;;;;;;19.27;3.20;;;;;;;;;;5013574;28;20554;-78
2023/12/16 14:09:47;;;;;;;16.27;3.07;;;;;;;;;;4998670;28;20088;-77
2023/12/16 14:12:13;;;;;;;13.57;3.33;;;;;;;;;;5021351;28;20038;-79
2023/12/16 14:14:39;;;;;;;11.23;2.17;;;;;;;;;;5014222;28;20022;-78
2023/12/16 14:17:05;;;;;;;18.80;2.83;;;;;;;;;;5014577;28;20021;-79
2023/12/16 14:19:31;;;;;;;9.57;2.97;;;;;;;;;;4998057;28;20343;-78
2023/12/16 14:21:57;;;;;;;9.47;2.60;;;;;;;;;;4996621;28;20048;-78
2023/12/16 14:24:23;;;;;;;13.67;2.60;;;;;;;;;;4995844;28;20072;-78
2023/12/16 14:26:49;;;;;;;17.00;2.73;;;;;;;;;;4997533;28;20026;-78
2023/12/16 14:29:15;;;;;;;19.17;3.40;;;;;;;;;;4998745;28;20049;-78
2023/12/16 14:31:48;;;;;;;13.37;3.00;;;;;;;;;;4998145;28;20030;-78
2023/12/16 14:34:14;;;;;;;11.93;2.57;;;;;;;;;;4997168;28;20117;-79
2023/12/16 14:36:40;;;;;;;11.77;2.90;;;;;;;;;;4999949;28;20133;-78
2023/12/16 14:39:06;;;;;;;13.97;2.63;;;;;;;;;;5015224;28;20029;-78
2023/12/16 14:41:32;;;;;;;12.67;2.53;;;;;;;;;;4996072;28;20466;-78
2023/12/16 14:43:58;;;;;;;8.63;2.17;;;;;;;;;;5010750;28;20028;-80
2023/12/16 14:46:24;;;;;;;14.23;2.77;;;;;;;;;;5010870;28;20105;-79
2023/12/16 14:48:52;;;;;;;17.93;3.90;;;;;;;;;;5012253;28;20097;-79
2023/12/16 14:51:18;;;;;;;12.23;2.80;;;;;;;;;;5003871;28;20455;-78
2023/12/16 14:53:44;;;;;;;12.53;2.40;;;;;;;;;;5002160;28;20029;-80
2023/12/16 14:56:17;;;;;;;9.97;2.80;;;;;;;;;;5002475;28;20022;-80
2023/12/16 14:58:43;;;;;;;13.53;2.80;;;;;;;;;;5002016;28;20045;-81
2023/12/16 15:01:09;;;;;;;16.00;2.40;;;;;;;;;;5013045;28;20041;-81
2023/12/16 15:03:35;;;;;;;12.43;2.70;;;;;;;;;;5019711;28;20331;-78
2023/12/16 15:06:01;;;;;;;13.50;2.50;;;;;;;;;;5003371;28;20835;-79
2023/12/16 15:08:27;;;;;;;10.50;1.77;;;;;;;;;;4998966;28;20030;-79
2023/12/16 15:10:53;;;;;;;11.53;2.40;;;;;;;;;;5007387;28;20566;-79
2023/12/16 15:13:19;;;;;;;20.90;3.00;;;;;;;;;;5001164;28;20116;-78
2023/12/16 15:15:45;;;;;;;12.73;2.87;;;;;;;;;;5011348;28;20033;-79
2023/12/16 15:18:11;;;;;;;12.07;2.70;;;;;;;;;;5002369;28;20084;-79
2023/12/16 15:20:41;;;;;;;12.70;3.17;;;;;;;;;;4999365;28;20034;-79
2023/12/16 15:23:06;;;;;;;9.57;2.60;;;;;;;;;;5003816;28;20041;-82
2023/12/16 15:25:32;;;;;;;17.07;3.03;;;;;;;;;;5001401;28;20594;-79
2023/12/16 15:27:58;;;;;;;10.93;2.67;;;;;;;;;;5000269;28;20129;-79
2023/12/16 15:30:24;;;;;;;15.90;2.63;;;;;;;;;;5016469;28;20065;-77